createdAt,value
2018-08-28T00:01:55.712Z,94812.00
2018-08-28T00:04:26.963Z,94813.00
2018-08-28T00:06:58.138Z,94819.00
2018-08-28T00:09:29.177Z,94828.00
2018-08-28T00:12:00.067Z,94822.00
2018-08-28T00:14:31.732Z,94823.00
2018-08-28T00:17:03.495Z,94822.00
2018-08-28T00:19:34.669Z,94825.00
2018-08-28T00:22:05.777Z,94831.00
2018-08-28T00:24:37.033Z,94823.00
2018-08-28T00:27:07.963Z,94824.00
2018-08-28T00:29:38.955Z,94829.00
2018-08-28T00:32:09.987Z,94826.00
2018-08-28T00:34:40.832Z,94831.00
2018-08-28T00:37:11.783Z,94830.00
2018-08-28T00:39:42.600Z,94824.00
2018-08-28T00:42:13.453Z,94826.00
2018-08-28T00:44:44.294Z,94817.00
2018-08-28T00:47:15.379Z,94812.00
2018-08-28T00:49:46.568Z,94816.00
2018-08-28T00:52:17.698Z,94812.00
2018-08-28T00:54:48.809Z,94806.00
2018-08-28T00:57:19.694Z,94814.00
2018-08-28T00:59:50.671Z,94816.00
2018-08-28T01:02:21.810Z,94817.00
2018-08-28T01:04:53.107Z,94821.00
2018-08-28T01:07:24.056Z,94817.00
2018-08-28T01:09:55.198Z,94818.00
2018-08-28T01:12:26.080Z,94830.00
2018-08-28T01:14:56.953Z,94828.00
2018-08-28T01:17:27.944Z,94825.00
2018-08-28T01:19:59.020Z,94825.00
2018-08-28T01:22:30.180Z,94827.00
2018-08-28T01:25:01.137Z,94832.00
2018-08-28T01:27:32.288Z,94836.00
2018-08-28T01:30:03.223Z,94843.00
2018-08-28T01:32:34.319Z,94835.00
2018-08-28T01:35:05.317Z,94835.00
2018-08-28T01:37:36.326Z,94834.00
2018-08-28T01:40:07.349Z,94850.00
2018-08-28T01:42:38.370Z,94837.00
2018-08-28T01:45:09.383Z,94838.00
2018-08-28T01:47:40.303Z,94824.00
2018-08-28T01:50:11.784Z,94820.00
2018-08-28T01:52:42.687Z,94818.00
2018-08-28T01:55:13.587Z,94820.00
2018-08-28T01:57:44.379Z,94820.00
2018-08-28T02:00:15.282Z,94823.00
2018-08-28T02:02:46.151Z,94820.00
2018-08-28T02:05:17.239Z,94824.00
2018-08-28T02:07:48.294Z,94822.00
2018-08-28T02:10:19.352Z,94825.00
2018-08-28T02:12:50.390Z,94825.00
2018-08-28T02:15:21.254Z,94824.00
2018-08-28T02:17:52.101Z,94825.00
2018-08-28T02:20:23.108Z,94824.00
2018-08-28T02:22:54.104Z,94824.00
2018-08-28T02:25:25.127Z,94824.00
2018-08-28T02:27:55.920Z,94821.00
2018-08-28T02:30:27.029Z,94817.00
2018-08-28T02:32:57.889Z,94823.00
2018-08-28T02:35:28.584Z,94822.00
2018-08-28T02:37:59.364Z,94823.00
2018-08-28T02:40:30.186Z,94830.00
2018-08-28T02:43:01.025Z,94825.00
2018-08-28T02:45:31.883Z,94815.00
2018-08-28T02:48:03.510Z,94818.00
2018-08-28T02:50:34.455Z,94820.00
2018-08-28T02:53:05.317Z,94823.00
2018-08-28T02:55:36.242Z,94817.00
2018-08-28T02:58:07.030Z,94820.00
2018-08-28T03:00:37.842Z,94826.00
2018-08-28T03:03:08.833Z,94827.00
2018-08-28T03:05:39.579Z,94830.00
2018-08-28T03:08:10.423Z,94829.00
2018-08-28T03:10:41.341Z,94830.00
2018-08-28T03:13:12.333Z,94841.00
2018-08-28T03:15:43.326Z,94849.00
2018-08-28T03:18:14.377Z,94847.00
2018-08-28T03:20:45.380Z,94851.00
2018-08-28T03:23:16.723Z,94858.00
2018-08-28T03:25:47.663Z,94868.00
2018-08-28T03:28:18.529Z,94876.00
2018-08-28T03:30:49.623Z,94884.00
2018-08-28T03:33:21.287Z,94883.00
2018-08-28T03:35:52.263Z,94891.00
2018-08-28T03:38:23.502Z,94895.00
2018-08-28T03:40:54.561Z,94900.00
2018-08-28T03:43:25.626Z,94898.00
2018-08-28T03:45:56.892Z,94884.00
2018-08-28T03:48:28.089Z,94884.00
2018-08-28T03:50:59.074Z,94878.00
2018-08-28T03:53:30.070Z,94884.00
2018-08-28T03:56:01.024Z,94887.00
2018-08-28T03:58:31.892Z,94885.00
2018-08-28T04:01:03.238Z,94891.00
2018-08-28T04:03:34.896Z,94887.00
2018-08-28T04:06:05.810Z,94884.00
2018-08-28T04:08:37.034Z,94889.00
2018-08-28T04:11:08.189Z,94887.00
2018-08-28T04:13:39.200Z,94893.00
2018-08-28T04:16:10.329Z,94896.00
2018-08-28T04:18:41.193Z,94905.00
2018-08-28T04:21:12.289Z,94900.00
2018-08-28T04:23:43.416Z,94900.00
2018-08-28T04:26:14.467Z,94906.00
2018-08-28T04:28:45.696Z,94907.00
2018-08-28T04:31:16.613Z,94899.00
2018-08-28T04:33:47.787Z,94902.00
2018-08-28T04:36:18.760Z,94904.00
2018-08-28T04:38:49.646Z,94909.00
2018-08-28T04:41:20.712Z,94910.00
2018-08-28T04:43:51.706Z,94906.00
2018-08-28T04:46:22.712Z,94917.00
2018-08-28T04:48:53.914Z,94906.00
2018-08-28T04:51:25.204Z,94912.00
2018-08-28T04:53:56.863Z,94913.00
2018-08-28T04:56:27.943Z,94911.00
2018-08-28T04:58:58.823Z,94912.00
2018-08-28T05:01:29.739Z,94915.00
2018-08-28T05:04:00.704Z,94918.00
2018-08-28T05:06:31.943Z,94916.00
2018-08-28T05:09:02.975Z,94916.00
2018-08-28T05:11:33.957Z,94911.00
2018-08-28T05:14:05.025Z,94906.00
2018-08-28T05:16:36.103Z,94906.00
2018-08-28T05:19:07.194Z,94908.00
2018-08-28T05:21:38.284Z,94912.00
2018-08-28T05:24:09.311Z,94917.00
2018-08-28T05:26:40.341Z,94917.00
2018-08-28T05:29:11.841Z,94914.00
2018-08-28T05:31:43.019Z,94914.00
2018-08-28T05:34:13.948Z,94916.00
2018-08-28T05:36:45.219Z,94907.00
2018-08-28T05:39:16.209Z,94911.00
2018-08-28T05:41:47.229Z,94912.00
2018-08-28T05:44:18.417Z,94921.00
2018-08-28T05:46:49.797Z,94920.00
2018-08-28T05:49:20.851Z,94927.00
2018-08-28T05:51:51.921Z,94920.00
2018-08-28T05:54:22.858Z,94924.00
2018-08-28T05:56:54.118Z,94928.00
2018-08-28T05:59:25.223Z,94928.00
2018-08-28T06:01:56.542Z,94929.00
2018-08-28T06:04:27.830Z,94920.00
2018-08-28T06:06:58.917Z,94929.00
2018-08-28T06:09:30.001Z,94923.00
2018-08-28T06:12:01.222Z,94917.00
2018-08-28T06:14:32.388Z,94925.00
2018-08-28T06:17:03.732Z,94927.00
2018-08-28T06:19:34.794Z,94928.00
2018-08-28T06:22:05.932Z,94931.00
2018-08-28T06:24:36.858Z,94931.00
2018-08-28T06:27:07.903Z,94931.00
2018-08-28T06:29:39.305Z,94941.00
2018-08-28T06:32:10.396Z,94940.00
2018-08-28T06:34:41.568Z,94945.00
2018-08-28T06:37:12.591Z,94946.00
2018-08-28T06:39:43.864Z,94941.00
2018-08-28T06:42:15.165Z,94934.00
2018-08-28T06:44:46.158Z,94938.00
2018-08-28T06:47:17.119Z,94940.00
2018-08-28T06:49:48.373Z,94947.00
2018-08-28T06:52:19.428Z,94943.00
2018-08-28T06:54:50.909Z,94944.00
2018-08-28T06:57:22.260Z,94946.00
2018-08-28T06:59:53.738Z,94946.00
2018-08-28T07:02:24.730Z,94947.00
2018-08-28T07:04:55.742Z,94953.00
2018-08-28T07:07:26.933Z,94956.00
2018-08-28T07:09:57.935Z,94961.00
2018-08-28T07:12:29.145Z,94965.00
2018-08-28T07:15:00.584Z,94967.00
2018-08-28T07:17:31.911Z,94965.00
2018-08-28T07:20:03.179Z,94962.00
2018-08-28T07:22:34.186Z,94967.00
2018-08-28T07:25:05.458Z,94968.00
2018-08-28T07:27:36.497Z,94964.00
2018-08-28T07:30:07.925Z,94968.00
2018-08-28T07:32:38.921Z,94966.00
2018-08-28T07:35:10.103Z,94969.00
2018-08-28T07:37:41.040Z,94969.00
2018-08-28T07:40:12.198Z,94976.00
2018-08-28T07:42:43.258Z,94977.00
2018-08-28T07:45:14.523Z,94979.00
2018-08-28T07:47:45.511Z,94980.00
2018-08-28T07:50:16.483Z,94986.00
2018-08-28T07:52:47.850Z,94986.00
2018-08-28T07:55:19.130Z,94992.00
2018-08-28T07:57:50.210Z,94994.00
2018-08-28T08:00:21.411Z,94998.00
2018-08-28T08:02:52.406Z,94998.00
2018-08-28T08:05:23.582Z,95004.00
2018-08-28T08:07:54.920Z,95004.00
2018-08-28T08:10:25.923Z,95000.00
2018-08-28T08:12:57.165Z,94997.00
2018-08-28T08:15:28.116Z,94993.00
2018-08-28T08:17:59.164Z,94996.00
2018-08-28T08:20:30.248Z,94990.00
2018-08-28T08:23:01.370Z,94990.00
2018-08-28T08:25:32.397Z,94990.00
2018-08-28T08:28:03.405Z,94991.00
2018-08-28T08:30:34.868Z,94990.00
2018-08-28T08:33:06.196Z,94991.00
2018-08-28T08:35:37.343Z,94992.00
2018-08-28T08:38:08.706Z,94989.00
2018-08-28T08:40:39.827Z,94981.00
2018-08-28T08:43:10.862Z,94983.00
2018-08-28T08:45:41.867Z,94984.00
2018-08-28T08:48:13.025Z,94984.00
2018-08-28T08:50:43.984Z,94983.00
2018-08-28T08:53:14.877Z,94985.00
2018-08-28T08:55:46.025Z,94978.00
2018-08-28T08:58:17.010Z,94984.00
2018-08-28T09:00:48.179Z,94982.00
2018-08-28T09:03:32.010Z,94981.00
2018-08-28T09:06:03.321Z,94977.00
2018-08-28T09:08:34.486Z,94977.00
2018-08-28T09:11:05.428Z,94977.00
2018-08-28T09:13:36.698Z,94979.00
2018-08-28T09:16:07.643Z,94980.00
2018-08-28T09:18:38.717Z,94978.00
2018-08-28T09:21:09.778Z,94980.00
2018-08-28T09:23:40.854Z,94976.00
2018-08-28T09:26:11.902Z,94981.00
2018-08-28T09:28:43.105Z,94972.00
2018-08-28T09:31:14.207Z,94976.00
2018-08-28T09:33:45.339Z,94983.00
2018-08-28T09:36:17.426Z,94978.00
2018-08-28T09:38:48.941Z,94982.00
2018-08-28T09:41:19.923Z,94969.00
2018-08-28T09:43:50.850Z,94976.00
2018-08-28T09:46:21.887Z,94978.00
2018-08-28T09:48:53.129Z,94972.00
2018-08-28T09:51:24.492Z,94972.00
2018-08-28T09:53:55.544Z,94969.00
2018-08-28T09:56:26.519Z,94969.00
2018-08-28T09:58:57.502Z,94960.00
2018-08-28T10:01:46.237Z,94956.00
2018-08-28T10:04:17.914Z,94958.00
2018-08-28T10:06:49.130Z,94959.00
2018-08-28T10:09:20.181Z,94956.00
2018-08-28T10:11:51.377Z,94958.00
2018-08-28T10:14:22.804Z,94958.00
2018-08-28T10:16:53.985Z,94957.00
2018-08-28T10:19:25.117Z,94953.00
2018-08-28T10:21:56.089Z,94954.00
2018-08-28T10:24:27.219Z,94956.00
2018-08-28T10:26:58.425Z,94952.00
2018-08-28T10:29:29.764Z,94951.00
2018-08-28T10:32:00.743Z,94950.00
2018-08-28T10:34:31.718Z,94942.00
2018-08-28T10:37:02.713Z,94935.00
2018-08-28T10:39:33.637Z,94937.00
2018-08-28T10:42:04.805Z,94927.00
2018-08-28T10:44:35.972Z,94934.00
2018-08-28T10:47:07.969Z,94931.00
2018-08-28T10:49:38.871Z,94924.00
2018-08-28T10:52:10.045Z,94916.00
2018-08-28T10:54:41.267Z,94920.00
2018-08-28T10:57:12.472Z,94913.00
2018-08-28T10:59:43.560Z,94916.00
2018-08-28T11:02:14.705Z,94917.00
2018-08-28T11:04:45.844Z,94920.00
2018-08-28T11:07:17.137Z,94916.00
2018-08-28T11:09:48.332Z,94916.00
2018-08-28T11:12:19.382Z,94907.00
2018-08-28T11:14:50.585Z,94895.00
2018-08-28T11:17:21.702Z,94895.00
2018-08-28T11:19:53.052Z,94887.00
2018-08-28T11:22:24.177Z,94886.00
2018-08-28T11:24:55.209Z,94886.00
2018-08-28T11:27:26.183Z,94883.00
2018-08-28T11:29:57.193Z,94878.00
2018-08-28T11:32:28.171Z,94881.00
2018-08-28T11:34:59.453Z,94874.00
2018-08-28T11:37:30.434Z,94875.00
2018-08-28T11:40:01.529Z,94870.00
2018-08-28T11:42:32.680Z,94863.00
2018-08-28T11:45:03.721Z,94862.00
2018-08-28T11:47:34.945Z,94861.00
2018-08-28T11:50:06.731Z,94862.00
2018-08-28T11:52:37.977Z,94859.00
2018-08-28T11:55:09.551Z,94856.00
2018-08-28T11:57:40.821Z,94854.00
2018-08-28T12:00:12.050Z,94855.00
2018-08-28T12:02:43.573Z,94848.00
2018-08-28T12:05:14.826Z,94849.00
2018-08-28T12:07:46.178Z,94847.00
2018-08-28T12:10:17.534Z,94841.00
2018-08-28T12:12:48.713Z,94837.00
2018-08-28T12:15:19.903Z,94838.00
2018-08-28T12:17:50.896Z,94833.00
2018-08-28T12:20:22.367Z,94834.00
2018-08-28T12:22:53.497Z,94830.00
2018-08-28T12:25:24.657Z,94825.00
2018-08-28T12:27:56.130Z,94838.00
2018-08-28T12:30:27.086Z,94835.00
2018-08-28T12:32:59.076Z,94834.00
2018-08-28T12:35:30.278Z,94836.00
2018-08-28T12:38:01.574Z,94835.00
2018-08-28T12:40:32.791Z,94830.00
2018-08-28T12:43:03.901Z,94839.00
2018-08-28T12:45:34.967Z,94840.00
2018-08-28T12:48:06.224Z,94841.00
2018-08-28T12:50:37.680Z,94835.00
2018-08-28T12:53:08.854Z,94841.00
2018-08-28T12:55:39.750Z,94840.00
2018-08-28T12:58:10.739Z,94841.00
2018-08-28T13:00:42.174Z,94837.00
2018-08-28T13:03:13.295Z,94834.00
2018-08-28T13:05:44.345Z,94832.00
2018-08-28T13:08:15.562Z,94836.00
2018-08-28T13:10:46.766Z,94831.00
2018-08-28T13:13:18.176Z,94835.00
2018-08-28T13:15:49.231Z,94837.00
2018-08-28T13:18:20.631Z,94838.00
2018-08-28T13:20:51.780Z,94834.00
2018-08-28T13:23:23.196Z,94834.00
2018-08-28T13:25:54.414Z,94828.00
2018-08-28T13:28:25.826Z,94835.00
2018-08-28T13:30:57.184Z,94833.00
2018-08-28T13:33:28.517Z,94832.00
2018-08-28T13:35:59.846Z,94823.00
2018-08-28T13:38:31.094Z,94824.00
2018-08-28T13:41:03.672Z,94824.00
2018-08-28T13:43:34.889Z,94824.00
2018-08-28T13:46:06.254Z,94825.00
2018-08-28T13:48:37.695Z,94828.00
2018-08-28T13:51:09.038Z,94824.00
2018-08-28T13:53:40.395Z,94826.00
2018-08-28T13:56:11.764Z,94833.00
2018-08-28T13:58:42.924Z,94833.00
2018-08-28T14:01:14.039Z,94830.00
2018-08-28T14:03:45.272Z,94829.00
2018-08-28T14:06:16.382Z,94828.00
2018-08-28T14:08:47.469Z,94823.00
2018-08-28T14:11:18.682Z,94823.00
2018-08-28T14:13:49.843Z,94823.00
2018-08-28T14:16:21.084Z,94822.00
2018-08-28T14:18:52.456Z,94820.00
2018-08-28T14:21:23.692Z,94816.00
2018-08-28T14:23:54.957Z,94820.00
2018-08-28T14:26:26.398Z,94817.00
2018-08-28T14:28:57.797Z,94821.00
2018-08-28T14:31:29.315Z,94825.00
2018-08-28T14:34:00.900Z,94827.00
2018-08-28T14:36:32.527Z,94832.00
2018-08-28T14:39:04.161Z,94836.00
2018-08-28T14:41:35.507Z,94824.00
2018-08-28T14:44:07.314Z,94826.00
2018-08-28T14:46:38.575Z,94825.00
2018-08-28T14:49:10.446Z,94827.00
2018-08-28T14:51:41.910Z,94818.00
2018-08-28T14:54:13.329Z,94826.00
2018-08-28T14:56:44.950Z,94826.00
2018-08-28T14:59:17.025Z,94829.00
2018-08-28T15:01:48.335Z,94828.00
2018-08-28T15:04:19.582Z,94828.00
2018-08-28T15:06:51.058Z,94832.00
2018-08-28T15:09:22.468Z,94831.00
2018-08-28T15:11:53.723Z,94833.00
2018-08-28T15:14:25.197Z,94838.00
2018-08-28T15:16:56.567Z,94841.00
2018-08-28T15:19:27.699Z,94847.00
2018-08-28T15:28:49.090Z,94857.00
2018-08-28T15:31:20.764Z,94858.00
2018-08-28T15:33:52.211Z,94869.00
2018-08-28T15:36:24.298Z,94869.00
2018-08-28T15:38:57.924Z,94871.00
2018-08-28T15:41:29.536Z,94868.00
2018-08-28T15:44:01.625Z,94876.00
2018-08-28T15:46:33.500Z,94878.00
2018-08-28T15:49:04.710Z,94880.00
2018-08-28T15:51:38.740Z,94877.00
2018-08-28T15:54:10.906Z,94879.00
2018-08-28T15:56:42.907Z,94875.00
2018-08-28T15:59:15.133Z,94872.00
2018-08-28T16:01:46.431Z,94871.00
2018-08-28T16:04:20.684Z,94879.00
2018-08-28T16:06:54.291Z,94877.00
2018-08-28T16:09:25.533Z,94886.00
2018-08-28T16:11:57.414Z,94883.00
2018-08-28T16:14:28.980Z,94886.00
2018-08-28T16:17:02.137Z,94887.00
2018-08-28T16:19:33.354Z,94882.00
2018-08-28T16:22:05.905Z,94887.00
2018-08-28T16:24:37.553Z,94890.00
2018-08-28T16:27:08.996Z,94890.00
2018-08-28T16:29:40.274Z,94891.00
2018-08-28T16:32:14.876Z,94894.00
2018-08-28T16:34:46.076Z,94900.00
2018-08-28T16:37:17.924Z,94900.00
2018-08-28T16:39:49.326Z,94910.00
2018-08-28T16:42:21.609Z,94908.00
2018-08-28T16:44:52.629Z,94913.00
2018-08-28T16:47:24.153Z,94915.00
2018-08-28T16:49:55.553Z,94918.00
2018-08-28T16:52:27.098Z,94922.00
2018-08-28T16:54:59.272Z,94921.00
2018-08-28T16:57:30.433Z,94921.00
2018-08-28T17:00:02.204Z,94926.00
2018-08-28T17:02:34.425Z,94930.00
2018-08-28T17:05:06.790Z,94931.00
2018-08-28T17:07:38.100Z,94934.00
2018-08-28T17:10:09.499Z,94938.00
2018-08-28T17:12:42.033Z,94943.00
2018-08-28T17:15:13.373Z,94939.00
2018-08-28T17:17:45.458Z,94946.00
2018-08-28T17:20:16.814Z,94959.00
2018-08-28T17:22:49.775Z,94957.00
2018-08-28T17:25:21.573Z,94962.00
2018-08-28T17:27:52.580Z,94954.00
2018-08-28T17:30:23.998Z,94965.00
2018-08-28T17:32:55.341Z,94958.00
2018-08-28T17:35:27.111Z,94962.00
2018-08-28T17:37:58.356Z,94964.00
2018-08-28T17:40:31.774Z,94959.00
2018-08-28T17:43:02.936Z,94962.00
2018-08-28T17:45:34.960Z,94968.00
2018-08-28T17:48:06.459Z,94975.00
2018-08-28T17:50:39.519Z,94978.00
2018-08-28T17:53:11.572Z,94981.00
2018-08-28T17:55:42.692Z,94983.00
2018-08-28T17:58:13.993Z,94992.00
2018-08-28T18:00:45.129Z,94996.00
2018-08-28T18:03:16.476Z,95013.00
2018-08-28T18:05:47.492Z,95010.00
2018-08-28T18:08:18.662Z,95015.00
2018-08-28T18:10:49.972Z,95016.00
2018-08-28T18:13:22.728Z,95025.00
2018-08-28T18:15:53.850Z,95022.00
2018-08-28T18:18:25.220Z,95025.00
2018-08-28T18:20:56.607Z,95027.00
2018-08-28T18:23:27.779Z,95029.00
2018-08-28T18:25:59.476Z,95031.00
2018-08-28T18:28:30.788Z,95035.00
2018-08-28T18:31:01.899Z,95043.00
2018-08-28T18:33:33.346Z,95048.00
2018-08-28T18:36:05.406Z,95042.00
2018-08-28T18:38:37.597Z,95045.00
2018-08-28T18:41:09.006Z,95044.00
2018-08-28T18:43:40.570Z,95053.00
2018-08-28T18:46:11.746Z,95053.00
2018-08-28T18:48:43.008Z,95055.00
2018-08-28T18:51:16.281Z,95054.00
2018-08-28T18:53:47.701Z,95053.00
2018-08-28T18:56:19.087Z,95056.00
2018-08-28T18:58:50.144Z,95061.00
2018-08-28T19:01:21.532Z,95062.00
2018-08-28T19:03:53.480Z,95071.00
2018-08-28T19:06:25.006Z,95065.00
2018-08-28T19:08:56.539Z,95064.00
2018-08-28T19:11:28.908Z,95066.00
2018-08-28T19:14:00.291Z,95062.00
2018-08-28T19:16:31.845Z,95064.00
2018-08-28T19:19:03.812Z,95065.00
2018-08-28T19:21:35.355Z,95065.00
2018-08-28T19:24:07.454Z,95067.00
2018-08-28T19:26:39.285Z,95065.00
2018-08-28T19:29:11.706Z,95063.00
2018-08-28T19:31:44.089Z,95065.00
2018-08-28T19:34:15.709Z,95070.00
2018-08-28T19:36:47.382Z,95071.00
2018-08-28T19:39:19.028Z,95068.00
2018-08-28T19:41:50.749Z,95069.00
2018-08-28T19:44:22.527Z,95067.00
2018-08-28T19:46:54.253Z,95068.00
2018-08-28T19:49:26.303Z,95072.00
2018-08-28T19:51:57.964Z,95071.00
2018-08-28T19:54:29.621Z,95070.00
2018-08-28T19:57:02.285Z,95078.00
2018-08-28T19:59:33.867Z,95073.00
2018-08-28T20:02:05.633Z,95071.00
2018-08-28T20:04:37.916Z,95069.00
2018-08-28T20:07:09.968Z,95064.00
2018-08-28T20:09:41.419Z,95065.00
2018-08-28T20:12:13.101Z,95071.00
2018-08-28T20:14:46.722Z,95072.00
2018-08-28T20:17:18.338Z,95075.00
2018-08-28T20:19:51.342Z,95071.00
2018-08-28T20:22:22.896Z,95072.00
2018-08-28T20:24:54.216Z,95074.00
2018-08-28T20:27:26.201Z,95073.00
2018-08-28T20:29:57.838Z,95077.00
2018-08-28T20:32:30.257Z,95079.00
2018-08-28T20:35:01.885Z,95079.00
2018-08-28T20:37:33.520Z,95089.00
2018-08-28T20:40:05.140Z,95089.00
2018-08-28T20:42:36.986Z,95094.00
2018-08-28T20:45:08.769Z,95089.00
2018-08-28T20:47:40.348Z,95091.00
2018-08-28T20:50:11.964Z,95092.00
2018-08-28T20:52:43.718Z,95100.00
2018-08-28T20:55:15.108Z,95098.00
2018-08-28T20:57:46.352Z,95097.00
2018-08-28T21:00:17.461Z,95096.00
2018-08-28T21:02:49.114Z,95098.00
2018-08-28T21:05:26.255Z,95095.00
2018-08-28T21:07:58.748Z,95097.00
2018-08-28T21:10:32.208Z,95105.00
2018-08-28T21:13:03.532Z,95095.00
2018-08-28T21:15:35.694Z,95092.00
2018-08-28T21:18:06.880Z,95093.00
2018-08-28T21:20:38.418Z,95091.00
2018-08-28T21:23:09.809Z,95097.00
2018-08-28T21:25:41.045Z,95098.00
2018-08-28T21:28:12.423Z,95098.00
2018-08-28T21:30:43.870Z,95100.00
2018-08-28T21:33:15.325Z,95103.00
2018-08-28T21:35:46.669Z,95099.00
2018-08-28T21:38:18.045Z,95096.00
2018-08-28T21:40:49.835Z,95103.00
2018-08-28T21:43:20.851Z,95097.00
2018-08-28T21:45:52.225Z,95095.00
2018-08-28T21:48:23.410Z,95096.00
2018-08-28T21:50:54.597Z,95096.00
2018-08-28T21:53:26.125Z,95094.00
2018-08-28T21:55:58.466Z,95094.00
2018-08-28T21:58:30.310Z,95094.00
2018-08-28T22:01:06.880Z,95094.00
2018-08-28T22:03:38.644Z,95088.00
2018-08-28T22:06:15.065Z,95090.00
2018-08-28T22:08:46.410Z,95090.00
2018-08-28T22:11:17.735Z,95092.00
2018-08-28T22:13:49.009Z,95095.00
2018-08-28T22:16:20.198Z,95091.00
2018-08-28T22:18:51.345Z,95090.00
2018-08-28T22:21:22.732Z,95092.00
2018-08-28T22:23:53.821Z,95091.00
2018-08-28T22:26:25.166Z,95089.00
2018-08-28T22:28:56.485Z,95083.00
2018-08-28T22:31:27.828Z,95083.00
2018-08-28T22:33:58.826Z,95090.00
2018-08-28T22:36:30.449Z,95092.00
2018-08-28T22:39:02.011Z,95088.00
2018-08-28T22:41:33.124Z,95082.00
2018-08-28T22:44:04.075Z,95077.00
2018-08-28T22:46:35.171Z,95078.00
2018-08-28T22:49:06.303Z,95079.00
2018-08-28T22:51:38.078Z,95084.00
2018-08-28T22:54:09.223Z,95077.00
2018-08-28T22:56:40.425Z,95078.00
2018-08-28T22:59:11.497Z,95076.00
2018-08-28T23:01:42.673Z,95073.00
2018-08-28T23:04:14.049Z,95077.00
2018-08-28T23:06:45.134Z,95077.00
2018-08-28T23:09:16.122Z,95073.00
2018-08-28T23:11:47.728Z,95073.00
2018-08-28T23:14:18.922Z,95075.00
2018-08-28T23:16:49.902Z,95070.00
2018-08-28T23:19:21.328Z,95069.00
2018-08-28T23:21:52.342Z,95070.00
2018-08-28T23:24:23.249Z,95070.00
2018-08-28T23:26:54.394Z,95071.00
2018-08-28T23:29:25.617Z,95068.00
2018-08-28T23:31:56.658Z,95070.00
2018-08-28T23:34:27.559Z,95068.00
2018-08-28T23:36:58.538Z,95068.00
2018-08-28T23:39:29.436Z,95073.00
2018-08-28T23:42:00.875Z,95079.00
2018-08-28T23:44:32.249Z,95076.00
2018-08-28T23:47:03.944Z,95071.00
2018-08-28T23:49:34.862Z,95076.00
2018-08-28T23:52:06.430Z,95078.00
2018-08-28T23:54:39.034Z,95085.00
2018-08-28T23:57:10.541Z,95082.00
2018-08-28T23:59:41.638Z,95086.00
